Buoy 17652

sailwx.info

Track history (hours):
 
Tides and Currents Weather Stations Pressure Air Temp Water Temp Dewpoint Dewpoint Depression Visibility Wind Speed Wind Dir Waves Ship Positions

Drifting buoy 17652

Last reported at 2016-Apr-30 21:00 UTC. Time now 2016-May-01 00:24 UTC.
Position S 35°30' E 012°49'.

Barometer 1025.2 mb
Water temperature 18.6 ° C

Date/timePositionNaut miles runAvg speedWind from/ knotsBaromVisibWave heightAir tempDewpointWater temp
2016-Apr-30 21:00S 35°30' E 012°49'2 2.0 1025.2 18.6
2016-Apr-30 20:00S 35°28' E 012°50'4 1.2 1025.6 18.6
2016-Apr-30 17:00S 35°25' E 012°53'1 0.8 1026.0 18.5
2016-Apr-30 16:00S 35°25' E 012°54'9 1.3 1026.2 18.5
2016-Apr-30 09:00S 35°18' E 013°00'3 1.1 1027.5 18.4
2016-Apr-30 06:00S 35°15' E 013°02'0 0.4 1026.5 18.4
2016-Apr-30 05:00S 35°15' E 013°02'2 2.3 1026.3 18.4
2016-Apr-30 04:00S 35°13' E 013°03'0 0.0 1025.8 18.6
2016-Apr-30 03:00S 35°13' E 013°03'4 3.8 1025.4 18.7
2016-Apr-30 02:00S 35°09' E 013°05'0 0.0 1025.2 18.8
2016-Apr-30 01:00S 35°09' E 013°05'0 0.0 1024.9 18.8
2016-Apr-30 00:00S 35°09' E 013°05'3 2.6 1024.5 18.8
2016-Apr-29 23:00S 35°07' E 013°07'0 0.0 1024.4 18.9
2016-Apr-29 22:00S 35°07' E 013°07'4 1.2 1024.4 18.9
2016-Apr-29 19:00S 35°04' E 013°08'1 0.4 1022.5 19.0
2016-Apr-29 17:00S 35°03' E 013°08'1 1.5 1020.4 19.1
2016-Apr-29 16:00S 35°02' E 013°09'1 0.6 1019.6 19.1
2016-Apr-29 15:00S 35°01' E 013°09'0 0.0 1018.8 19.1
2016-Apr-29 14:00S 35°01' E 013°08'1 1.4 1017.8 19.1
2016-Apr-29 13:00S 34°60' E 013°09'0 0.0 1017.1 19.1
2016-Apr-29 12:00S 34°60' E 013°09'4 1.5 1017.0 19.1
2016-Apr-29 09:00S 34°55' E 013°08'0 0.0 1015.9 19.1
2016-Apr-29 08:00S 34°55' E 013°08'2 0.8 1015.2 19.1
2016-Apr-29 05:00S 34°53' E 013°09'1 0.8 1012.4 19.1
2016-Apr-29 04:00S 34°53' E 013°08'0 0.3 1011.7 19.1
2016-Apr-29 03:00S 34°53' E 013°08'2 1.8 1011.3 19.1
2016-Apr-29 02:00S 34°52' E 013°06'0 0.0 1010.9 19.1
2016-Apr-29 01:00S 34°52' E 013°06'0 0.0 1010.7 19.1
2016-Apr-29 00:00S 34°52' E 013°06'3 1.7 1010.3 19.1
2016-Apr-28 22:00S 34°50' E 013°03'0 0.0 1009.9 19.2
2016-Apr-28 20:00S 34°50' E 013°03'3 1.1 1010.0 19.0
2016-Apr-28 17:00S 34°48' E 012°60'0 0.3 1009.7 18.5
2016-Apr-28 16:00S 34°48' E 012°59'1 0.9 1009.9 18.5
2016-Apr-28 15:00S 34°48' E 012°58'1 1.4 1009.8 18.5
2016-Apr-28 14:00S 34°48' E 012°56'7 0.9 1010.0 18.5
2016-Apr-28 06:00S 34°51' E 012°48'2 1.8 1014.7 18.7
2016-Apr-28 05:00S 34°52' E 012°46'4 1.5 1014.8 18.9
2016-Apr-28 02:00S 34°55' E 012°42'6 1.3 1016.4 19.1
2016-Apr-27 21:00S 35°00' E 012°38'0 0.1 1019.1 19.2
2016-Apr-27 18:00S 35°00' E 012°39'2 0.9 1019.6 19.1
2016-Apr-27 16:00S 35°02' E 012°38'3 2.8 1019.4 19.0
2016-Apr-27 15:00S 35°04' E 012°37'0 0.0 1019.5 19.0
2016-Apr-27 13:00S 35°04' E 012°37'4 0.8 1019.9 19.1
2016-Apr-27 08:00S 35°08' E 012°36'2 0.8 1020.8 19.0
2016-Apr-27 05:00S 35°10' E 012°35'1 1.3 1019.9 19.1
2016-Apr-27 04:00S 35°11' E 012°33'1 0.4 1019.8 19.0
2016-Apr-27 02:00S 35°12' E 012°33'1 1.2 1020.4 18.9
2016-Apr-27 01:00S 35°13' E 012°32'3 0.6 1020.2 18.9
2016-Apr-26 21:00S 35°15' E 012°30'3 1.0 1022.3 19.0
2016-Apr-26 18:00S 35°17' E 012°27'2 1.7 1022.7 19.1
2016-Apr-26 17:00S 35°17' E 012°25'1 1.4 1022.6 19.1
2016-Apr-26 16:00S 35°18' E 012°24'1 0.5 1022.3 19.1
2016-Apr-26 15:00S 35°18' E 012°23'2 1.0 1023.0 19.1
2016-Apr-26 13:00S 35°19' E 012°21'0 0.0 1024.1 19.1
2016-Apr-26 12:00S 35°19' E 012°21'5 1.1 1025.3 19.1
2016-Apr-26 07:00S 35°19' E 012°14'2 1.1 1026.8 19.1
2016-Apr-26 05:00S 35°20' E 012°12'0 0.3 1026.7 19.1
2016-Apr-26 04:00S 35°20' E 012°12'3 1.7 1026.5 19.1
2016-Apr-26 02:00S 35°22' E 012°08'4 0.8 1026.7 19.1
2016-Apr-25 21:00S 35°25' E 012°05'2 2.2 1027.0 19.1
2016-Apr-25 20:00S 35°27' E 012°03'5 1.8 1026.4 19.1
2016-Apr-25 17:00S 35°30' E 011°59'1 1.0 1024.2 19.0
2016-Apr-25 16:00S 35°31' E 011°58'1 1.4 1023.8 19.0
2016-Apr-25 15:00S 35°32' E 011°57'3 1.5 1023.1 19.0
2016-Apr-25 13:00S 35°34' E 011°54'10 2.6 1021.7 19.0
2016-Apr-25 09:00S 35°43' E 011°49'7 1.8 1021.0 19.1
2016-Apr-25 05:00S 35°50' E 011°46'14 7.2 1017.7 19.1
2016-Apr-25 03:00S 36°04' E 011°41'0 0.0 1017.3 19.1
2016-Apr-25 00:00S 36°04' E 011°41'0 0.0 1017.2 19.1
2016-Apr-24 22:00S 36°04' E 011°41'7 1.5 1016.9 19.2
2016-Apr-24 17:00S 36°11' E 011°38'3 1.1 1014.1 19.2
2016-Apr-24 14:00S 36°14' E 011°39'9 1.8 1012.8 19.3
2016-Apr-24 09:00S 36°22' E 011°43'0 0.0 1011.2 19.1
2016-Apr-24 08:00S 36°22' E 011°43'5 2.5 1010.6 19.1
2016-Apr-24 06:00S 36°27' E 011°42'0 0.0 1008.1 19.0
2016-Apr-24 05:00S 36°27' E 011°42'2 2.5 1007.3 18.9
2016-Apr-24 04:00S 36°30' E 011°41'6 1.1 1007.0 18.9
2016-Apr-23 22:00S 36°33' E 011°34'4 0.8 1009.9 18.6
2016-Apr-23 17:00S 36°30' E 011°31'1 0.3 1011.4 18.5
2016-Apr-23 15:00S 36°30' E 011°30'4 0.6 1012.5 18.5
2016-Apr-23 08:00S 36°34' E 011°29'4 1.9 1015.7 18.9
2016-Apr-23 06:00S 36°36' E 011°25'2 2.3 1015.1 18.9
2016-Apr-23 05:00S 36°36' E 011°22'3 2.7 1014.6 18.9
2016-Apr-23 04:00S 36°37' E 011°19'0 0.0 1014.4 18.9
2016-Apr-23 03:00S 36°37' E 011°19'6 2.9 1014.2 19.0
2016-Apr-23 01:00S 36°34' E 011°13'0 0.0 1014.3 19.0
2016-Apr-23 00:00S 36°34' E 011°13'4 4.0 1014.2 19.0
2016-Apr-22 23:00S 36°32' E 011°09'1 0.7 1013.8 19.0
2016-Apr-22 21:00S 36°30' E 011°10'2 2.3 1012.8 19.1
2016-Apr-22 20:00S 36°28' E 011°08'2 2.0 1012.3 19.1
2016-Apr-22 19:00S 36°26' E 011°08'0 0.2 1011.3 19.1
2016-Apr-22 17:00S 36°26' E 011°08'0 0.1 1008.8 19.1
2016-Apr-22 14:00S 36°26' E 011°08'8 1.1 1005.2 19.1
2016-Apr-22 07:00S 36°29' E 010°59'1 1.5 992.7 18.5
2016-Apr-22 06:00S 36°28' E 010°58'3 2.7 989.0 18.6
2016-Apr-22 05:00S 36°27' E 010°55'3 1.6 986.0 18.6
2016-Apr-22 03:00S 36°25' E 010°52'3 2.7 986.6 18.7
2016-Apr-22 02:00S 36°22' E 010°50'3 2.6 988.7 18.7
2016-Apr-22 01:00S 36°20' E 010°49'0 0.0 991.4 18.8
2016-Apr-22 00:00S 36°20' E 010°49'4 1.4 993.5 18.9
2016-Apr-21 21:00S 36°16' E 010°47'2 1.0 998.8 19.0
2016-Apr-21 19:00S 36°14' E 010°48'3 2.9 1002.1 19.0
2016-Apr-21 18:00S 36°11' E 010°47'3 0.8 1002.7 18.8
2016-Apr-21 14:00S 36°08' E 010°46'10 2.0 1005.8 18.9
2016-Apr-21 09:00S 35°58' E 010°46'0 0.0 1010.7 19.3
2016-Apr-21 08:00S 35°58' E 010°46'1 0.9 1011.3 19.3
2016-Apr-21 07:00S 35°57' E 010°46'7 1.8 1011.0 19.3
2016-Apr-21 03:00S 35°50' E 010°48'2 0.8 1010.3 18.3
2016-Apr-21 01:00S 35°48' E 010°47'0 0.0 1010.6 18.4
2016-Apr-21 00:00S 35°48' E 010°47'   1010.3 18.5
Track history (hours):
 
Tides and Currents Weather Stations Pressure Air Temp Water Temp Dewpoint Dewpoint Depression Visibility Wind Speed Wind Dir Waves Ship Positions

Drifting buoy 17652

Last reported at 2016-Apr-30 21:00 UTC. Time now 2016-May-01 00:24 UTC.
Position S 35°30' E 012°49'.

Barometer 1025.2 mb
Water temperature 18.6 ° C

Date/timePositionNaut miles runAvg speedWind from/ knotsBaromVisibWave heightAir tempDewpointWater temp
2016-Apr-30 21:00S 35°30' E 012°49'2 2.0 1025.2 18.6
2016-Apr-30 20:00S 35°28' E 012°50'4 1.2 1025.6 18.6
2016-Apr-30 17:00S 35°25' E 012°53'1 0.8 1026.0 18.5
2016-Apr-30 16:00S 35°25' E 012°54'9 1.3 1026.2 18.5
2016-Apr-30 09:00S 35°18' E 013°00'3 1.1 1027.5 18.4
2016-Apr-30 06:00S 35°15' E 013°02'0 0.4 1026.5 18.4
2016-Apr-30 05:00S 35°15' E 013°02'2 2.3 1026.3 18.4
2016-Apr-30 04:00S 35°13' E 013°03'0 0.0 1025.8 18.6
2016-Apr-30 03:00S 35°13' E 013°03'4 3.8 1025.4 18.7
2016-Apr-30 02:00S 35°09' E 013°05'0 0.0 1025.2 18.8
2016-Apr-30 01:00S 35°09' E 013°05'0 0.0 1024.9 18.8
2016-Apr-30 00:00S 35°09' E 013°05'3 2.6 1024.5 18.8
2016-Apr-29 23:00S 35°07' E 013°07'0 0.0 1024.4 18.9
2016-Apr-29 22:00S 35°07' E 013°07'4 1.2 1024.4 18.9
2016-Apr-29 19:00S 35°04' E 013°08'1 0.4 1022.5 19.0
2016-Apr-29 17:00S 35°03' E 013°08'1 1.5 1020.4 19.1
2016-Apr-29 16:00S 35°02' E 013°09'1 0.6 1019.6 19.1
2016-Apr-29 15:00S 35°01' E 013°09'0 0.0 1018.8 19.1
2016-Apr-29 14:00S 35°01' E 013°08'1 1.4 1017.8 19.1
2016-Apr-29 13:00S 34°60' E 013°09'0 0.0 1017.1 19.1
2016-Apr-29 12:00S 34°60' E 013°09'4 1.5 1017.0 19.1
2016-Apr-29 09:00S 34°55' E 013°08'0 0.0 1015.9 19.1
2016-Apr-29 08:00S 34°55' E 013°08'2 0.8 1015.2 19.1
2016-Apr-29 05:00S 34°53' E 013°09'1 0.8 1012.4 19.1
2016-Apr-29 04:00S 34°53' E 013°08'0 0.3 1011.7 19.1
2016-Apr-29 03:00S 34°53' E 013°08'2 1.8 1011.3 19.1
2016-Apr-29 02:00S 34°52' E 013°06'0 0.0 1010.9 19.1
2016-Apr-29 01:00S 34°52' E 013°06'0 0.0 1010.7 19.1
2016-Apr-29 00:00S 34°52' E 013°06'3 1.7 1010.3 19.1
2016-Apr-28 22:00S 34°50' E 013°03'0 0.0 1009.9 19.2
2016-Apr-28 20:00S 34°50' E 013°03'3 1.1 1010.0 19.0
2016-Apr-28 17:00S 34°48' E 012°60'0 0.3 1009.7 18.5
2016-Apr-28 16:00S 34°48' E 012°59'1 0.9 1009.9 18.5
2016-Apr-28 15:00S 34°48' E 012°58'1 1.4 1009.8 18.5
2016-Apr-28 14:00S 34°48' E 012°56'7 0.9 1010.0 18.5
2016-Apr-28 06:00S 34°51' E 012°48'2 1.8 1014.7 18.7
2016-Apr-28 05:00S 34°52' E 012°46'4 1.5 1014.8 18.9
2016-Apr-28 02:00S 34°55' E 012°42'6 1.3 1016.4 19.1
2016-Apr-27 21:00S 35°00' E 012°38'0 0.1 1019.1 19.2
2016-Apr-27 18:00S 35°00' E 012°39'2 0.9 1019.6 19.1
2016-Apr-27 16:00S 35°02' E 012°38'3 2.8 1019.4 19.0
2016-Apr-27 15:00S 35°04' E 012°37'0 0.0 1019.5 19.0
2016-Apr-27 13:00S 35°04' E 012°37'4 0.8 1019.9 19.1
2016-Apr-27 08:00S 35°08' E 012°36'2 0.8 1020.8 19.0
2016-Apr-27 05:00S 35°10' E 012°35'1 1.3 1019.9 19.1
2016-Apr-27 04:00S 35°11' E 012°33'1 0.4 1019.8 19.0
2016-Apr-27 02:00S 35°12' E 012°33'1 1.2 1020.4 18.9
2016-Apr-27 01:00S 35°13' E 012°32'3 0.6 1020.2 18.9
2016-Apr-26 21:00S 35°15' E 012°30'3 1.0 1022.3 19.0
2016-Apr-26 18:00S 35°17' E 012°27'2 1.7 1022.7 19.1
2016-Apr-26 17:00S 35°17' E 012°25'1 1.4 1022.6 19.1
2016-Apr-26 16:00S 35°18' E 012°24'1 0.5 1022.3 19.1
2016-Apr-26 15:00S 35°18' E 012°23'2 1.0 1023.0 19.1
2016-Apr-26 13:00S 35°19' E 012°21'0 0.0 1024.1 19.1
2016-Apr-26 12:00S 35°19' E 012°21'5 1.1 1025.3 19.1
2016-Apr-26 07:00S 35°19' E 012°14'2 1.1 1026.8 19.1
2016-Apr-26 05:00S 35°20' E 012°12'0 0.3 1026.7 19.1
2016-Apr-26 04:00S 35°20' E 012°12'3 1.7 1026.5 19.1
2016-Apr-26 02:00S 35°22' E 012°08'4 0.8 1026.7 19.1
2016-Apr-25 21:00S 35°25' E 012°05'2 2.2 1027.0 19.1
2016-Apr-25 20:00S 35°27' E 012°03'5 1.8 1026.4 19.1
2016-Apr-25 17:00S 35°30' E 011°59'1 1.0 1024.2 19.0
2016-Apr-25 16:00S 35°31' E 011°58'1 1.4 1023.8 19.0
2016-Apr-25 15:00S 35°32' E 011°57'3 1.5 1023.1 19.0
2016-Apr-25 13:00S 35°34' E 011°54'10 2.6 1021.7 19.0
2016-Apr-25 09:00S 35°43' E 011°49'7 1.8 1021.0 19.1
2016-Apr-25 05:00S 35°50' E 011°46'14 7.2 1017.7 19.1
2016-Apr-25 03:00S 36°04' E 011°41'0 0.0 1017.3 19.1
2016-Apr-25 00:00S 36°04' E 011°41'0 0.0 1017.2 19.1
2016-Apr-24 22:00S 36°04' E 011°41'7 1.5 1016.9 19.2
2016-Apr-24 17:00S 36°11' E 011°38'3 1.1 1014.1 19.2
2016-Apr-24 14:00S 36°14' E 011°39'9 1.8 1012.8 19.3
2016-Apr-24 09:00S 36°22' E 011°43'0 0.0 1011.2 19.1
2016-Apr-24 08:00S 36°22' E 011°43'5 2.5 1010.6 19.1
2016-Apr-24 06:00S 36°27' E 011°42'0 0.0 1008.1 19.0
2016-Apr-24 05:00S 36°27' E 011°42'2 2.5 1007.3 18.9
2016-Apr-24 04:00S 36°30' E 011°41'6 1.1 1007.0 18.9
2016-Apr-23 22:00S 36°33' E 011°34'4 0.8 1009.9 18.6
2016-Apr-23 17:00S 36°30' E 011°31'1 0.3 1011.4 18.5
2016-Apr-23 15:00S 36°30' E 011°30'4 0.6 1012.5 18.5
2016-Apr-23 08:00S 36°34' E 011°29'4 1.9 1015.7 18.9
2016-Apr-23 06:00S 36°36' E 011°25'2 2.3 1015.1 18.9
2016-Apr-23 05:00S 36°36' E 011°22'3 2.7 1014.6 18.9
2016-Apr-23 04:00S 36°37' E 011°19'0 0.0 1014.4 18.9
2016-Apr-23 03:00S 36°37' E 011°19'6 2.9 1014.2 19.0
2016-Apr-23 01:00S 36°34' E 011°13'0 0.0 1014.3 19.0
2016-Apr-23 00:00S 36°34' E 011°13'4 4.0 1014.2 19.0
2016-Apr-22 23:00S 36°32' E 011°09'1 0.7 1013.8 19.0
2016-Apr-22 21:00S 36°30' E 011°10'2 2.3 1012.8 19.1
2016-Apr-22 20:00S 36°28' E 011°08'2 2.0 1012.3 19.1
2016-Apr-22 19:00S 36°26' E 011°08'0 0.2 1011.3 19.1
2016-Apr-22 17:00S 36°26' E 011°08'0 0.1 1008.8 19.1
2016-Apr-22 14:00S 36°26' E 011°08'8 1.1 1005.2 19.1
2016-Apr-22 07:00S 36°29' E 010°59'1 1.5 992.7 18.5
2016-Apr-22 06:00S 36°28' E 010°58'3 2.7 989.0 18.6
2016-Apr-22 05:00S 36°27' E 010°55'3 1.6 986.0 18.6
2016-Apr-22 03:00S 36°25' E 010°52'3 2.7 986.6 18.7
2016-Apr-22 02:00S 36°22' E 010°50'3 2.6 988.7 18.7
2016-Apr-22 01:00S 36°20' E 010°49'0 0.0 991.4 18.8
2016-Apr-22 00:00S 36°20' E 010°49'4 1.4 993.5 18.9
2016-Apr-21 21:00S 36°16' E 010°47'2 1.0 998.8 19.0
2016-Apr-21 19:00S 36°14' E 010°48'3 2.9 1002.1 19.0
2016-Apr-21 18:00S 36°11' E 010°47'3 0.8 1002.7 18.8
2016-Apr-21 14:00S 36°08' E 010°46'10 2.0 1005.8 18.9
2016-Apr-21 09:00S 35°58' E 010°46'0 0.0 1010.7 19.3
2016-Apr-21 08:00S 35°58' E 010°46'1 0.9 1011.3 19.3
2016-Apr-21 07:00S 35°57' E 010°46'7 1.8 1011.0 19.3
2016-Apr-21 03:00S 35°50' E 010°48'2 0.8 1010.3 18.3
2016-Apr-21 01:00S 35°48' E 010°47'0 0.0 1010.6 18.4
2016-Apr-21 00:00S 35°48' E 010°47'   1010.3 18.5

Dump ship's entire track history